100LL.CA
Aviation Fuel Pricing for Canadians
Please upgrade your browser - Tested with IE9, FireFox, Chrome, Safari

Fuel Airports Other Help
Prices Economy Info List METAR/TAF Kneeboard Help

Enter a list of
Airport Idents:
Sort Method: As Entered    By Ident   

CYVR
TAF CYVR 270840Z 2709/2812 06006KT P6SM -RA OVC012 TEMPO 2709/2710 3SM -RA BR BKN006 FM271000 VRB03KT P6SM OVC012 TEMPO 2710/2715 5SM -DZ BR OVC006 FM271500 VRB03KT P6SM SCT008 BKN015 TEMPO 2715/2812 SCT015 BKN025 BECMG 2802/2804 07006KT RMK NXT FCST BY 271200Z
CYXX
METAR CYXX 271000Z 20007KT 8SM -RA FEW005 OVC015 06/05 A3020 RMK SF1NS7 SLP232
TAF CYXX 270540Z 2706/2806 VRB03KT 2SM -RA BR FEW003 OVC006 TEMPO 2706/2710 6SM -RA BR OVC012 FM271000 VRB03KT P6SM OVC012 TEMPO 2710/2717 5SM -DZ BR OVC006 FM271700 VRB03KT P6SM SCT008 BKN015 TEMPO 2717/2806 SCT015 BKN025 RMK NXT FCST BY 271200Z
KBLI
TAF KBLI 270520Z 2706/2806 18010G20KT P6SM OVC015 FM270800 17010KT 5SM -RA BR OVC009 FM271500 VRB03KT 3SM BR OVC005 FM272000 35005KT P6SM OVC015


Please Send Updates!

Desktop Version ]  [ Mobile Version ]  [ Disclaimer ]